Staples Mill, Virginia
Current Conditions -  °F | °C
As of 7:17 AM on Saturday 25 Oct 2014 (Local Time) from KOFP Reporting Station
Haze Haze  
Wind Chill: 37°   Ceiling: Unl
Heat Index: 37°   Visibility: 1.7mi
Dew Point: 36°   Wind: 0mph
Humidity: 96%   Direction: NA
Pressure: 30"   Gusts: NA
Location:  37.6255°N, 77.4923°W
Report Text: KOFP 251117Z AUTO 00000KT 1 3/4SM BR CLR 03/02 A3000 RMK AO2 VIS 3/4V5 T00280022
Loading
Personal Weather Stations






























Interactive Weather Map
Tropical Storm Tracking
New forecast layout! Learn more

10-Day Weather Forecast

Advertisements
Track Severe Weather on mobile